Time;durP1;ratioP1;P1;durP2;ratioP2;P2;SDS_P1;SDS_P2;PMS_P1;PMS_P2;Temp;Humidity;BMP_temperature;BMP_pressure;BME280_temperature;BME280_humidity;BME280_pressure;Samples;Min_cycle;Max_cycle;Signal;HPM_P1;HPM_P2
2021/07/19 00:01:30;;;;;;;13.10;7.43;;;17.90;99.90;;;;;;5089230;28;20227;-74
2021/07/19 00:03:57;;;;;;;11.40;7.30;;;17.90;99.90;;;;;;5090761;28;20209;-74
2021/07/19 00:06:24;;;;;;;13.85;8.10;;;17.90;99.90;;;;;;5092171;28;20661;-74
2021/07/19 00:08:51;;;;;;;11.20;7.07;;;17.80;99.90;;;;;;5091711;28;20202;-74
2021/07/19 00:11:18;;;;;;;13.38;7.97;;;17.90;99.90;;;;;;5091970;28;20554;-74
2021/07/19 00:13:45;;;;;;;11.15;6.97;;;17.90;99.90;;;;;;5091504;28;20207;-74
2021/07/19 00:16:14;;;;;;;15.40;7.95;;;17.90;99.90;;;;;;5091891;28;20204;-74
2021/07/19 00:18:41;;;;;;;11.68;7.32;;;18.00;99.90;;;;;;5091364;28;20206;-74
2021/07/19 00:21:08;;;;;;;11.32;7.40;;;17.90;99.90;;;;;;5091961;28;20217;-74
2021/07/19 00:23:35;;;;;;;16.10;7.43;;;18.00;99.90;;;;;;5091920;28;20204;-74
2021/07/19 00:26:03;;;;;;;14.55;7.95;;;17.80;99.90;;;;;;5091673;28;20611;-74
2021/07/19 00:28:30;;;;;;;13.13;7.88;;;17.70;99.90;;;;;;5091813;28;20201;-74
2021/07/19 00:30:57;;;;;;;15.73;8.18;;;17.80;99.90;;;;;;5091154;28;20208;-74
2021/07/19 00:33:25;;;;;;;15.02;7.75;;;17.80;99.90;;;;;;5091661;28;20581;-74
2021/07/19 00:35:53;;;;;;;13.55;7.90;;;17.80;99.90;;;;;;5089963;28;20204;-74
2021/07/19 00:38:20;;;;;;;15.00;8.10;;;17.90;99.90;;;;;;5091758;28;20205;-75
2021/07/19 00:40:48;;;;;;;12.65;7.80;;;17.80;99.90;;;;;;5091005;28;20232;-74
2021/07/19 00:43:14;;;;;;;12.35;7.47;;;17.90;99.90;;;;;;5091616;28;20202;-74
2021/07/19 00:45:41;;;;;;;12.40;7.80;;;17.80;99.90;;;;;;5091669;28;20202;-74
2021/07/19 00:48:08;;;;;;;14.57;7.40;;;17.90;99.90;;;;;;5091406;28;20197;-74
2021/07/19 00:50:39;;;;;;;12.27;6.90;;;17.80;99.90;;;;;;5091259;28;20202;-74
2021/07/19 00:53:08;;;;;;;13.50;7.30;;;17.80;99.90;;;;;;5091653;28;20679;-74
2021/07/19 00:55:38;;;;;;;14.57;7.78;;;17.80;99.90;;;;;;5086412;28;20212;-74
2021/07/19 00:58:07;;;;;;;13.75;7.30;;;17.80;99.90;;;;;;5094991;28;20510;-74
2021/07/19 01:00:36;;;;;;;16.20;7.63;;;17.80;99.90;;;;;;5094344;28;20225;-74
2021/07/19 01:03:04;;;;;;;13.93;7.97;;;17.70;99.90;;;;;;5094956;28;20212;-74
2021/07/19 01:05:32;;;;;;;13.23;7.88;;;17.70;99.90;;;;;;5094940;28;20636;-74
2021/07/19 01:08:03;;;;;;;14.77;8.10;;;17.60;99.90;;;;;;5094534;28;20202;-74
2021/07/19 01:10:30;;;;;;;14.07;8.00;;;17.60;99.90;;;;;;5094421;28;20193;-74
2021/07/19 01:12:58;;;;;;;15.25;7.75;;;17.60;99.90;;;;;;5094701;28;20197;-74
2021/07/19 01:15:27;;;;;;;13.70;7.65;;;17.70;99.90;;;;;;5094903;28;20208;-74
2021/07/19 01:17:55;;;;;;;15.07;8.23;;;17.80;99.90;;;;;;5094525;28;20571;-74
2021/07/19 01:20:27;;;;;;;13.70;8.15;;;17.80;99.90;;;;;;5094479;28;20493;-74
2021/07/19 01:23:45;;;;;;;14.40;7.72;;;17.80;99.90;;;;;;5087180;28;20198;-74
2021/07/19 01:26:38;;;;;;;16.60;8.75;;;17.90;99.90;;;;;;5092855;28;20201;-74
2021/07/19 01:29:08;;;;;;;16.30;7.88;;;17.80;99.90;;;;;;5074254;28;20206;-74
2021/07/19 01:31:39;;;;;;;14.30;8.07;;;17.90;99.90;;;;;;5081286;28;20564;-74
2021/07/19 01:34:10;;;;;;;13.35;8.15;;;18.00;99.90;;;;;;5086929;28;20198;-74
2021/07/19 01:36:41;;;;;;;14.30;8.00;;;17.90;99.90;;;;;;5085574;28;20220;-74
2021/07/19 01:39:09;;;;;;;14.75;7.72;;;17.80;99.90;;;;;;5083423;28;20201;-74
2021/07/19 01:41:37;;;;;;;14.65;8.25;;;17.80;99.90;;;;;;5091359;28;20229;-74
2021/07/19 01:44:07;;;;;;;14.80;7.25;;;17.80;99.90;;;;;;5088365;28;20271;-74
2021/07/19 01:46:35;;;;;;;15.48;7.10;;;17.80;99.90;;;;;;5089866;28;20201;-74
2021/07/19 01:49:04;;;;;;;11.80;6.55;;;17.80;99.90;;;;;;5087571;28;20213;-74
2021/07/19 01:51:31;;;;;;;12.27;6.57;;;17.80;99.90;;;;;;5088627;28;20204;-74
2021/07/19 01:56:45;;;;;;;14.25;7.55;;;17.90;99.90;;;;;;5069000;28;20230;-74
2021/07/19 01:59:13;;;;;;;14.68;7.63;;;17.80;99.90;;;;;;5078245;28;20641;-74
2021/07/19 02:01:41;;;;;;;13.25;7.07;;;17.70;99.90;;;;;;5072258;28;20714;-74
2021/07/19 02:04:09;;;;;;;16.25;7.95;;;17.70;99.90;;;;;;5072339;28;20205;-74
2021/07/19 02:06:36;;;;;;;11.80;8.07;;;17.60;99.90;;;;;;5071240;28;20217;-74
2021/07/19 02:09:06;;;;;;;14.02;7.32;;;17.70;99.90;;;;;;5083775;28;20555;-74
2021/07/19 02:11:34;;;;;;;11.27;7.03;;;17.70;99.90;;;;;;5061752;28;20289;-74
2021/07/19 02:14:04;;;;;;;13.13;6.90;;;17.60;99.90;;;;;;5085507;28;20212;-74
2021/07/19 02:16:33;;;;;;;16.33;7.43;;;17.60;99.90;;;;;;5072375;28;20232;-74
2021/07/19 02:19:02;;;;;;;14.50;7.88;;;17.80;99.90;;;;;;5072611;28;20537;-74
2021/07/19 02:21:30;;;;;;;12.40;7.22;;;17.60;99.90;;;;;;5068767;28;20590;-74
2021/07/19 02:23:58;;;;;;;15.23;7.47;;;17.60;99.90;;;;;;5071743;28;20205;-74
2021/07/19 02:26:26;;;;;;;14.18;7.43;;;17.60;99.90;;;;;;5067459;28;20525;-74
2021/07/19 02:28:54;;;;;;;12.55;7.18;;;17.70;99.90;;;;;;5078303;28;20201;-74
2021/07/19 02:31:23;;;;;;;13.25;7.13;;;17.70;99.90;;;;;;5074891;28;20625;-74
2021/07/19 02:33:52;;;;;;;11.75;6.68;;;17.60;99.90;;;;;;5069312;28;20623;-74
2021/07/19 02:36:20;;;;;;;13.38;7.35;;;17.60;99.90;;;;;;5058382;28;20201;-74
2021/07/19 02:38:49;;;;;;;17.85;7.15;;;17.60;99.90;;;;;;5081263;28;20209;-74
2021/07/19 02:41:17;;;;;;;14.02;7.05;;;17.60;99.90;;;;;;5074145;28;20224;-74
2021/07/19 02:43:47;;;;;;;11.73;6.88;;;17.60;99.90;;;;;;5072159;28;20675;-74
2021/07/19 02:46:15;;;;;;;12.85;6.88;;;17.50;99.90;;;;;;5075415;28;20203;-74
2021/07/19 02:48:43;;;;;;;16.85;6.70;;;17.60;99.90;;;;;;5071654;28;20644;-74
2021/07/19 02:51:14;;;;;;;13.63;6.97;;;17.50;99.90;;;;;;5070725;28;20198;-74
2021/07/19 02:53:42;;;;;;;12.05;6.53;;;17.40;99.90;;;;;;5074462;28;20213;-74
2021/07/19 02:56:09;;;;;;;12.52;6.80;;;17.40;99.90;;;;;;5070764;28;20218;-73
2021/07/19 02:58:36;;;;;;;12.55;7.30;;;17.50;99.90;;;;;;5070311;28;20222;-74
2021/07/19 03:01:06;;;;;;;14.85;7.07;;;17.50;99.90;;;;;;5058681;28;20218;-73
2021/07/19 03:03:36;;;;;;;11.43;6.85;;;17.40;99.90;;;;;;5067094;28;20653;-73
2021/07/19 03:06:05;;;;;;;13.90;6.80;;;17.30;99.90;;;;;;5062498;28;20203;-69
2021/07/19 03:08:35;;;;;;;16.08;6.45;;;17.40;99.90;;;;;;5077608;28;20652;-69
2021/07/19 03:11:06;;;;;;;16.02;6.88;;;17.50;99.90;;;;;;5085034;28;20202;-69
2021/07/19 03:13:34;;;;;;;13.30;6.78;;;17.50;99.90;;;;;;5071680;28;20205;-70
2021/07/19 03:16:01;;;;;;;13.77;7.03;;;17.40;99.90;;;;;;5078761;28;20629;-70
2021/07/19 03:18:29;;;;;;;13.57;7.15;;;17.40;99.90;;;;;;5070322;28;20221;-70
2021/07/19 03:20:58;;;;;;;17.85;7.22;;;17.40;99.90;;;;;;5061412;28;20214;-70
2021/07/19 03:23:27;;;;;;;17.08;7.22;;;17.30;99.90;;;;;;5080186;28;20655;-70
2021/07/19 03:25:58;;;;;;;12.35;6.53;;;17.30;99.90;;;;;;5068902;28;20198;-70
2021/07/19 03:28:26;;;;;;;13.35;6.78;;;17.40;99.90;;;;;;5072087;28;20198;-70
2021/07/19 03:30:54;;;;;;;15.68;7.15;;;17.40;99.90;;;;;;5068889;28;20645;-70
2021/07/19 03:33:22;;;;;;;14.20;6.30;;;17.20;99.90;;;;;;5070461;28;20210;-69
2021/07/19 03:35:50;;;;;;;10.68;5.72;;;17.10;99.90;;;;;;5069077;28;20202;-70
2021/07/19 03:38:18;;;;;;;12.48;5.40;;;17.10;99.90;;;;;;5071726;28;20568;-70
2021/07/19 03:40:45;;;;;;;14.65;6.32;;;17.00;99.90;;;;;;5067358;28;20313;-70
2021/07/19 03:43:14;;;;;;;11.23;4.80;;;16.80;99.90;;;;;;5070985;28;20713;-70
2021/07/19 03:45:41;;;;;;;15.63;4.88;;;16.80;99.90;;;;;;5070535;28;20202;-69
2021/07/19 03:48:09;;;;;;;16.63;5.40;;;16.80;99.90;;;;;;5071577;28;20206;-70
2021/07/19 03:50:37;;;;;;;14.27;4.65;;;16.90;99.90;;;;;;5071065;28;20224;-70
2021/07/19 03:53:04;;;;;;;13.05;4.75;;;16.80;99.90;;;;;;5077419;28;20251;-72
2021/07/19 03:55:31;;;;;;;34.95;6.72;;;16.80;99.90;;;;;;5088982;28;20326;-72
2021/07/19 03:57:59;;;;;;;10.88;4.32;;;16.70;99.90;;;;;;5075560;28;20202;-73
2021/07/19 04:00:30;;;;;;;11.97;4.67;;;16.90;99.90;;;;;;5071225;28;20204;-72
2021/07/19 04:02:57;;;;;;;12.45;4.30;;;16.90;99.90;;;;;;5073692;28;20205;-73
2021/07/19 04:05:26;;;;;;;9.93;4.15;;;16.90;99.90;;;;;;5067424;28;20207;-73
2021/07/19 04:07:55;;;;;;;11.35;4.75;;;16.90;99.90;;;;;;5070779;28;20221;-73
2021/07/19 04:10:22;;;;;;;11.82;4.53;;;16.80;99.90;;;;;;5071928;28;20203;-73
2021/07/19 04:12:51;;;;;;;10.52;4.13;;;16.80;99.90;;;;;;5067395;28;20208;-73
2021/07/19 04:15:18;;;;;;;11.60;4.18;;;16.90;99.90;;;;;;5069044;28;20202;-74
2021/07/19 04:17:47;;;;;;;10.88;4.60;;;17.00;99.90;;;;;;5072070;28;20208;-73
2021/07/19 04:20:17;;;;;;;8.57;4.50;;;16.90;99.90;;;;;;5072295;28;20229;-72
2021/07/19 04:22:44;;;;;;;9.45;3.95;;;17.00;99.90;;;;;;5078105;28;20225;-73
2021/07/19 04:25:14;;;;;;;12.85;4.13;;;17.20;99.90;;;;;;5090013;28;20198;-73
2021/07/19 04:27:43;;;;;;;7.60;4.20;;;17.40;99.90;;;;;;5075333;28;20224;-74
2021/07/19 04:30:11;;;;;;;10.63;4.00;;;18.10;99.90;;;;;;5091747;28;20244;-73
2021/07/19 04:32:40;;;;;;;7.82;4.18;;;17.50;99.90;;;;;;5082838;28;20292;-73
2021/07/19 04:35:17;;;;;;;9.88;4.30;;;17.20;99.90;;;;;;5090026;28;20202;-73
2021/07/19 04:37:44;;;;;;;9.30;3.90;;;17.00;99.90;;;;;;5062420;28;20647;-74
2021/07/19 04:40:12;;;;;;;8.32;3.97;;;17.10;99.90;;;;;;5075143;28;20213;-73
2021/07/19 04:42:39;;;;;;;10.07;4.18;;;17.10;99.90;;;;;;5088714;28;20225;-73
2021/07/19 04:45:07;;;;;;;9.20;3.40;;;17.30;99.90;;;;;;5093663;28;20194;-74
2021/07/19 04:47:35;;;;;;;10.07;4.07;;;17.50;99.90;;;;;;5093683;28;20652;-73
2021/07/19 04:50:02;;;;;;;8.27;4.28;;;17.60;99.90;;;;;;5092675;28;20204;-73
2021/07/19 04:52:31;;;;;;;8.30;3.78;;;17.60;99.90;;;;;;5092774;28;20193;-74
2021/07/19 04:55:00;;;;;;;6.40;3.78;;;17.60;99.90;;;;;;5092603;28;20201;-73
2021/07/19 04:57:28;;;;;;;9.40;3.80;;;17.40;99.90;;;;;;5092925;28;20569;-73
2021/07/19 04:59:58;;;;;;;10.50;4.40;;;17.40;99.90;;;;;;5091424;28;20205;-74
2021/07/19 05:02:27;;;;;;;12.13;4.82;;;17.40;99.90;;;;;;5074963;28;20558;-73
2021/07/19 05:04:57;;;;;;;9.88;4.03;;;17.40;99.90;;;;;;5074083;28;20212;-73
2021/07/19 05:07:26;;;;;;;11.15;4.53;;;17.30;99.90;;;;;;5078133;28;20198;-73
2021/07/19 05:09:56;;;;;;;11.90;4.45;;;17.40;99.90;;;;;;5074416;28;20204;-73
2021/07/19 05:12:23;;;;;;;8.10;3.97;;;17.40;99.90;;;;;;5076281;28;20201;-74
2021/07/19 05:14:51;;;;;;;11.43;4.57;;;17.60;99.90;;;;;;5074188;28;20210;-73
2021/07/19 05:17:18;;;;;;;14.30;4.57;;;17.60;99.90;;;;;;5069517;28;20615;-74
2021/07/19 05:19:45;;;;;;;10.27;4.70;;;17.50;99.90;;;;;;5073719;28;20214;-73
2021/07/19 05:22:13;;;;;;;9.10;3.92;;;17.40;99.90;;;;;;5072306;28;20218;-73
2021/07/19 05:24:41;;;;;;;7.57;4.28;;;17.50;99.90;;;;;;5074111;28;20221;-73
2021/07/19 05:27:11;;;;;;;11.32;4.57;;;17.80;99.90;;;;;;5087445;28;20203;-73
2021/07/19 05:29:41;;;;;;;11.38;4.60;;;17.80;99.90;;;;;;5089968;28;20206;-73
2021/07/19 05:32:09;;;;;;;10.15;4.85;;;17.80;99.90;;;;;;5087836;28;20540;-72
2021/07/19 05:34:36;;;;;;;9.70;4.25;;;17.60;99.90;;;;;;5079731;28;20214;-73
2021/07/19 05:37:04;;;;;;;13.27;5.68;;;17.60;99.90;;;;;;5091544;28;20621;-73
2021/07/19 05:39:31;;;;;;;14.90;5.32;;;17.80;99.90;;;;;;5093869;28;20649;-72
2021/07/19 05:41:58;;;;;;;9.43;4.82;;;18.00;99.90;;;;;;5093439;28;20681;-72
2021/07/19 05:44:26;;;;;;;9.20;4.30;;;17.90;99.90;;;;;;5094051;28;20539;-72
2021/07/19 05:46:53;;;;;;;10.90;4.80;;;18.30;99.90;;;;;;5094257;28;20681;-72
2021/07/19 05:49:21;;;;;;;14.32;4.93;;;18.30;99.90;;;;;;5094050;28;20624;-72
2021/07/19 05:51:47;;;;;;;12.23;5.63;;;18.10;99.90;;;;;;5093605;28;20202;-72
2021/07/19 05:54:14;;;;;;;10.32;5.03;;;18.30;99.90;;;;;;5092208;28;20205;-73
2021/07/19 05:56:41;;;;;;;10.77;5.03;;;18.90;99.90;;;;;;5073287;28;20225;-73
2021/07/19 05:59:08;;;;;;;10.82;4.50;;;18.70;99.90;;;;;;5073865;28;20206;-73
2021/07/19 06:01:36;;;;;;;10.48;4.72;;;19.00;99.90;;;;;;5073022;28;20222;-72
2021/07/19 06:04:03;;;;;;;11.15;5.00;;;18.10;99.90;;;;;;5073583;28;20208;-73
2021/07/19 06:06:31;;;;;;;10.70;5.40;;;18.00;99.90;;;;;;5073008;28;20217;-73
2021/07/19 06:08:58;;;;;;;10.25;4.22;;;17.90;99.90;;;;;;5073276;28;20202;-73
2021/07/19 06:11:25;;;;;;;11.02;5.60;;;17.80;99.90;;;;;;5070874;28;20245;-73
2021/07/19 06:13:52;;;;;;;14.18;5.38;;;17.70;99.90;;;;;;5072940;28;20202;-72
2021/07/19 06:16:19;;;;;;;8.85;4.60;;;17.70;99.90;;;;;;5068919;28;20285;-72
2021/07/19 06:18:47;;;;;;;9.50;4.88;;;17.80;99.90;;;;;;5070923;28;20686;-73
2021/07/19 06:21:14;;;;;;;9.15;4.45;;;17.60;99.90;;;;;;5069823;28;20202;-73
2021/07/19 06:23:40;;;;;;;13.43;5.63;;;17.80;99.90;;;;;;5073320;28;20575;-73
2021/07/19 06:26:07;;;;;;;10.70;5.10;;;17.70;99.90;;;;;;5069319;28;20205;-73
2021/07/19 06:28:34;;;;;;;13.98;5.72;;;17.80;99.90;;;;;;5072880;28;20686;-73
2021/07/19 06:31:01;;;;;;;11.07;4.70;;;18.00;99.90;;;;;;5082707;28;20198;-73
2021/07/19 06:33:28;;;;;;;11.20;5.05;;;17.90;99.90;;;;;;5079412;28;20202;-73
2021/07/19 06:35:56;;;;;;;10.73;4.72;;;18.00;99.90;;;;;;5078414;28;20201;-73
2021/07/19 06:38:23;;;;;;;11.25;5.60;;;17.90;99.90;;;;;;5085517;28;20667;-73
2021/07/19 06:40:50;;;;;;;12.93;5.10;;;17.90;99.90;;;;;;5078446;28;20640;-73
2021/07/19 06:43:16;;;;;;;10.18;4.50;;;18.10;99.90;;;;;;5079116;28;20221;-73
2021/07/19 06:45:46;;;;;;;8.90;4.60;;;18.00;99.90;;;;;;5083086;28;20216;-73
2021/07/19 06:48:13;;;;;;;9.85;4.50;;;18.10;99.90;;;;;;5071809;28;20198;-73
2021/07/19 06:50:40;;;;;;;9.95;5.15;;;18.20;99.90;;;;;;5072294;28;20218;-73
2021/07/19 06:53:08;;;;;;;11.38;5.32;;;18.10;99.90;;;;;;5084213;28;20204;-73
2021/07/19 06:55:35;;;;;;;10.38;5.18;;;18.10;99.90;;;;;;5071697;28;20220;-73
2021/07/19 06:58:03;;;;;;;9.40;5.43;;;18.30;99.90;;;;;;5071816;28;20202;-72
2021/07/19 07:00:29;;;;;;;12.18;5.05;;;18.10;99.90;;;;;;5083020;28;20197;-72
2021/07/19 07:02:56;;;;;;;10.93;5.28;;;18.20;99.90;;;;;;5073721;28;20226;-69
2021/07/19 07:05:23;;;;;;;9.82;4.50;;;18.30;99.90;;;;;;5058383;28;20552;-74
2021/07/19 07:07:50;;;;;;;11.32;4.85;;;18.30;99.90;;;;;;5071516;28;20573;-74
2021/07/19 07:10:18;;;;;;;11.27;4.60;;;18.10;99.90;;;;;;5071699;28;20203;-73
2021/07/19 07:12:45;;;;;;;9.02;4.68;;;18.40;99.90;;;;;;5064645;28;20206;-74
2021/07/19 07:15:13;;;;;;;6.55;4.40;;;18.50;99.90;;;;;;5070354;28;20198;-74
2021/07/19 07:17:41;;;;;;;11.52;4.68;;;18.60;99.90;;;;;;5072267;28;20202;-73
2021/07/19 07:20:09;;;;;;;10.75;4.07;;;18.60;99.90;;;;;;5071049;28;20221;-74
2021/07/19 07:22:36;;;;;;;9.65;4.65;;;18.50;99.90;;;;;;5069985;28;20329;-74
2021/07/19 07:25:04;;;;;;;9.13;4.60;;;18.30;99.90;;;;;;5074692;28;20198;-74
2021/07/19 07:27:34;;;;;;;10.68;4.00;;;18.30;99.90;;;;;;5072980;28;20686;-73
2021/07/19 07:30:01;;;;;;;9.10;4.25;;;18.20;99.90;;;;;;5070560;28;20210;-74
2021/07/19 07:32:28;;;;;;;12.55;4.13;;;18.40;99.90;;;;;;5073453;28;20545;-73
2021/07/19 07:34:54;;;;;;;9.43;4.03;;;18.20;99.90;;;;;;5083206;28;20242;-70
2021/07/19 07:37:21;;;;;;;10.20;4.07;;;18.10;99.90;;;;;;5081860;28;20288;-69
2021/07/19 07:39:48;;;;;;;11.05;4.40;;;18.30;99.90;;;;;;5073076;28;20208;-70
2021/07/19 07:42:15;;;;;;;8.50;4.22;;;18.20;99.90;;;;;;5071251;28;20221;-70
2021/07/19 07:44:43;;;;;;;9.15;3.95;;;18.40;99.90;;;;;;5071385;28;20206;-70
2021/07/19 07:47:10;;;;;;;10.48;4.32;;;18.60;99.90;;;;;;5071340;28;20198;-70
2021/07/19 07:49:38;;;;;;;7.30;3.83;;;18.50;99.90;;;;;;5085106;28;20214;-70
2021/07/19 07:52:05;;;;;;;8.77;4.18;;;18.90;99.90;;;;;;5078308;28;20202;-70
2021/07/19 07:54:32;;;;;;;8.18;3.92;;;19.10;99.90;;;;;;5082232;28;20575;-70
2021/07/19 07:56:59;;;;;;;7.88;4.05;;;19.10;99.90;;;;;;5107574;22;20514;-71
2021/07/19 07:59:26;;;;;;;12.75;4.75;;;18.90;99.90;;;;;;5070638;28;20213;-71
2021/07/19 08:01:54;;;;;;;13.30;4.18;;;18.80;99.90;;;;;;5070563;28;20206;-71
2021/07/19 08:04:21;;;;;;;9.35;4.28;;;18.70;99.90;;;;;;5073738;28;20202;-71
2021/07/19 08:06:48;;;;;;;8.07;3.95;;;18.60;99.90;;;;;;5075817;28;20202;-71
2021/07/19 08:09:15;;;;;;;8.35;3.55;;;18.80;99.90;;;;;;5075637;28;20208;-71
2021/07/19 08:11:43;;;;;;;10.60;3.75;;;18.70;99.90;;;;;;5074756;28;20198;-71
2021/07/19 08:14:10;;;;;;;11.77;4.18;;;18.80;99.90;;;;;;5074536;28;20190;-71
2021/07/19 08:16:37;;;;;;;8.18;3.45;;;18.90;99.90;;;;;;5075369;28;20202;-71
2021/07/19 08:19:06;;;;;;;8.82;3.70;;;18.90;99.90;;;;;;5066756;28;20326;-71
2021/07/19 08:21:33;;;;;;;20.92;4.68;;;18.90;99.90;;;;;;5071287;28;20210;-71
2021/07/19 08:24:01;;;;;;;8.10;3.83;;;19.20;99.90;;;;;;5069590;28;20317;-71
2021/07/19 08:26:29;;;;;;;10.30;3.92;;;19.30;99.90;;;;;;5052954;28;20207;-71
2021/07/19 08:28:56;;;;;;;6.63;3.10;;;19.40;99.90;;;;;;5050939;28;20210;-71
2021/07/19 08:31:24;;;;;;;8.98;3.45;;;19.70;99.90;;;;;;5058446;28;20206;-71
2021/07/19 08:33:51;;;;;;;7.15;4.00;;;19.60;99.90;;;;;;5070358;28;20194;-71
2021/07/19 08:36:19;;;;;;;8.63;3.90;;;19.70;99.90;;;;;;5071423;28;20574;-71
2021/07/19 08:38:47;;;;;;;6.78;3.35;;;19.90;99.90;;;;;;5058861;28;20957;-71
2021/07/19 08:41:14;;;;;;;9.07;3.60;;;20.00;99.90;;;;;;5050575;28;20207;-71
2021/07/19 08:43:42;;;;;;;6.00;3.72;;;20.20;99.90;;;;;;5061562;28;20222;-71
2021/07/19 08:46:10;;;;;;;6.68;3.70;;;19.90;99.90;;;;;;5071018;28;20194;-71
2021/07/19 08:48:39;;;;;;;7.03;4.18;;;20.00;99.90;;;;;;5063481;28;20213;-71
2021/07/19 08:51:07;;;;;;;9.50;3.55;;;20.40;99.90;;;;;;5067847;28;20218;-72
2021/07/19 08:53:37;;;;;;;8.93;3.75;;;19.80;99.90;;;;;;5070898;28;20208;-71
2021/07/19 08:56:06;;;;;;;8.45;3.22;;;19.90;99.90;;;;;;5070383;28;20214;-71
2021/07/19 08:58:33;;;;;;;7.22;3.40;;;19.70;99.90;;;;;;5070257;28;20289;-72
2021/07/19 09:01:02;;;;;;;6.55;3.10;;;20.10;99.90;;;;;;5069746;28;20198;-72
2021/07/19 09:03:29;;;;;;;8.55;3.50;;;20.50;99.90;;;;;;5071132;28;20641;-72
2021/07/19 09:05:56;;;;;;;7.50;3.30;;;21.00;99.90;;;;;;5069755;28;20293;-72
2021/07/19 09:08:23;;;;;;;7.63;3.35;;;20.70;99.90;;;;;;5062345;28;20371;-72
2021/07/19 09:10:52;;;;;;;8.52;3.80;;;21.00;99.90;;;;;;5054666;28;20581;-72
2021/07/19 09:13:19;;;;;;;9.55;3.45;;;21.50;99.90;;;;;;5069389;28;20652;-72
2021/07/19 09:15:52;;;;;;;7.05;3.13;;;21.60;99.90;;;;;;5068880;28;20208;-72
2021/07/19 09:18:24;;;;;;;6.38;3.22;;;21.80;99.90;;;;;;5070366;28;20255;-72
2021/07/19 09:20:51;;;;;;;10.10;3.30;;;21.80;99.90;;;;;;5070415;28;20313;-72
2021/07/19 09:23:27;;;;;;;5.00;3.28;;;21.20;99.90;;;;;;5069753;28;20222;-72
2021/07/19 09:25:57;;;;;;;7.55;3.28;;;20.90;99.90;;;;;;5069871;28;20314;-72
2021/07/19 09:28:29;;;;;;;25.50;5.22;;;21.20;99.90;;;;;;5069712;28;20206;-72
2021/07/19 09:31:04;;;;;;;7.68;3.28;;;21.30;99.90;;;;;;5070070;28;20210;-72
2021/07/19 09:33:31;;;;;;;4.55;3.10;;;21.30;99.90;;;;;;5070384;28;20667;-72
2021/07/19 09:36:02;;;;;;;6.05;3.58;;;22.00;99.90;;;;;;5069271;28;20194;-72
2021/07/19 09:38:30;;;;;;;5.20;3.42;;;22.10;99.90;;;;;;5069960;28;20210;-72
2021/07/19 09:41:00;;;;;;;7.18;3.50;;;21.50;99.90;;;;;;5069018;28;20217;-72
2021/07/19 09:43:29;;;;;;;9.10;3.60;;;21.60;99.90;;;;;;5070014;28;20229;-72
2021/07/19 09:45:58;;;;;;;9.55;3.50;;;21.70;99.90;;;;;;5069182;28;20211;-72
2021/07/19 09:48:25;;;;;;;7.63;4.03;;;22.00;99.90;;;;;;5069241;28;20256;-71
2021/07/19 09:50:53;;;;;;;5.72;3.30;;;21.80;99.90;;;;;;5069322;28;20225;-72
2021/07/19 09:53:32;;;;;;;6.40;3.83;;;22.50;99.90;;;;;;5070047;28;20445;-72
2021/07/19 09:56:13;;;;;;;9.32;3.25;;;22.90;99.90;;;;;;5069797;28;20563;-72
2021/07/19 09:58:41;;;;;;;7.60;3.33;;;22.60;99.90;;;;;;5069874;28;20574;-72
2021/07/19 10:01:07;;;;;;;6.70;3.75;;;22.80;99.90;;;;;;5069107;28;20579;-72
2021/07/19 10:03:34;;;;;;;4.55;3.22;;;23.20;99.90;;;;;;5068410;28;20222;-72
2021/07/19 10:06:06;;;;;;;7.18;3.60;;;22.60;99.90;;;;;;5070080;28;20210;-72
2021/07/19 10:08:32;;;;;;;7.32;3.58;;;22.50;99.90;;;;;;5069522;28;20244;-72
2021/07/19 10:11:00;;;;;;;9.55;3.38;;;22.50;99.90;;;;;;5068353;28;20671;-72
2021/07/19 10:13:34;;;;;;;7.80;3.72;;;22.20;99.90;;;;;;5061254;28;20199;-72
2021/07/19 10:16:02;;;;;;;9.48;4.00;;;22.60;99.90;;;;;;5069325;28;20651;-72
2021/07/19 10:18:33;;;;;;;7.15;3.78;;;22.60;99.90;;;;;;5068407;28;20202;-74
2021/07/19 10:21:00;;;;;;;8.50;3.65;;;22.90;99.90;;;;;;5067457;28;20230;-71
2021/07/19 10:23:27;;;;;;;4.55;3.28;;;23.80;99.90;;;;;;5068213;28;20229;-71
2021/07/19 10:25:55;;;;;;;5.32;3.47;;;23.70;99.90;;;;;;5069100;28;20683;-71
2021/07/19 10:28:21;;;;;;;7.82;3.58;;;23.60;99.90;;;;;;5068366;28;20214;-71
2021/07/19 10:30:50;;;;;;;5.07;3.33;;;23.10;99.90;;;;;;5065027;28;20293;-71
2021/07/19 10:33:17;;;;;;;6.07;3.38;;;22.50;99.90;;;;;;5049188;28;20214;-71
2021/07/19 10:35:45;;;;;;;5.55;3.50;;;22.20;99.90;;;;;;5050936;28;20206;-70
2021/07/19 10:38:16;;;;;;;7.25;3.75;;;22.20;99.90;;;;;;5068351;28;20232;-70
2021/07/19 10:40:44;;;;;;;7.82;3.72;;;22.60;99.90;;;;;;5067960;28;20663;-70
2021/07/19 10:43:14;;;;;;;7.03;4.30;;;22.60;99.90;;;;;;5068691;28;20218;-71
2021/07/19 10:45:44;;;;;;;8.38;3.95;;;22.90;99.90;;;;;;5067330;28;20220;-70
2021/07/19 10:48:22;;;;;;;7.70;4.10;;;22.50;99.90;;;;;;5048196;28;20710;-71
2021/07/19 10:50:50;;;;;;;7.20;3.60;;;22.70;99.90;;;;;;5049350;28;20207;-70
2021/07/19 10:53:20;;;;;;;6.78;3.95;;;22.50;99.90;;;;;;5068517;28;20211;-71
2021/07/19 10:55:59;;;;;;;5.63;4.15;;;22.70;99.90;;;;;;5067834;28;20475;-72
2021/07/19 10:58:37;;;;;;;8.90;3.75;;;22.30;99.90;;;;;;5068057;28;20589;-73
2021/07/19 11:01:04;;;;;;;7.65;4.00;;;22.10;99.90;;;;;;5068114;28;20220;-73
2021/07/19 11:03:40;;;;;;;7.28;4.25;;;22.40;99.90;;;;;;5066797;28;20218;-73
2021/07/19 11:06:07;;;;;;;6.00;4.10;;;22.20;99.90;;;;;;5067061;28;20213;-73
2021/07/19 11:08:34;;;;;;;8.20;4.30;;;22.20;99.90;;;;;;5067290;28;20211;-73
2021/07/19 11:11:01;;;;;;;6.65;3.97;;;22.20;99.90;;;;;;5067552;28;20202;-73
2021/07/19 11:13:31;;;;;;;8.30;4.32;;;22.30;99.90;;;;;;5059694;28;20198;-74
2021/07/19 11:15:59;;;;;;;7.38;4.13;;;22.00;99.90;;;;;;5067824;28;20295;-73
2021/07/19 11:18:28;;;;;;;6.80;4.32;;;21.90;99.90;;;;;;5068505;28;20225;-74
2021/07/19 11:20:58;;;;;;;6.85;3.95;;;21.70;99.90;;;;;;5067309;28;20213;-74
2021/07/19 11:23:31;;;;;;;7.13;4.25;;;21.70;99.90;;;;;;5067107;28;20222;-73
2021/07/19 11:25:59;;;;;;;7.43;4.78;;;21.90;99.90;;;;;;5047121;28;20214;-74
2021/07/19 11:28:29;;;;;;;10.38;4.57;;;21.60;99.90;;;;;;5048348;28;20221;-74
2021/07/19 11:31:08;;;;;;;6.05;3.90;;;21.70;99.90;;;;;;5050970;28;20202;-74
2021/07/19 11:33:36;;;;;;;7.32;3.65;;;21.70;99.90;;;;;;5050033;28;20798;-73
2021/07/19 11:36:20;;;;;;;5.50;3.63;;;21.60;99.90;;;;;;5055708;28;20202;-73
2021/07/19 11:38:47;;;;;;;8.02;4.35;;;21.70;99.90;;;;;;5049898;28;20205;-74
2021/07/19 11:41:20;;;;;;;9.23;5.10;;;21.80;99.90;;;;;;5066526;28;20206;-73
2021/07/19 11:43:49;;;;;;;9.88;4.88;;;21.60;99.90;;;;;;5064944;28;20218;-73
2021/07/19 11:46:31;;;;;;;6.80;4.88;;;21.70;99.90;;;;;;5062784;28;20212;-73
2021/07/19 11:49:05;;;;;;;7.35;4.35;;;21.60;99.90;;;;;;5066654;28;20557;-73
2021/07/19 11:51:35;;;;;;;6.82;4.32;;;21.50;99.90;;;;;;5067102;28;20206;-74
2021/07/19 11:54:03;;;;;;;6.53;3.85;;;21.90;99.90;;;;;;5067513;28;20206;-73
2021/07/19 11:56:31;;;;;;;7.47;4.13;;;21.90;99.90;;;;;;5067219;28;20561;-73
2021/07/19 11:59:00;;;;;;;10.85;4.68;;;21.70;99.90;;;;;;5068022;28;20202;-73
2021/07/19 12:01:28;;;;;;;6.53;4.32;;;21.90;99.90;;;;;;5067177;28;20198;-73
2021/07/19 12:03:56;;;;;;;7.88;4.45;;;22.00;99.90;;;;;;5067165;28;20589;-74
2021/07/19 12:06:23;;;;;;;10.48;4.40;;;21.90;99.90;;;;;;5067725;28;20228;-74
2021/07/19 12:08:58;;;;;;;8.63;4.70;;;22.00;99.90;;;;;;5067499;28;20202;-73
2021/07/19 12:11:25;;;;;;;9.75;4.72;;;22.40;99.90;;;;;;5067137;28;20292;-74
2021/07/19 12:13:59;;;;;;;7.93;4.38;;;22.60;99.90;;;;;;5067230;28;20213;-74
2021/07/19 12:16:34;;;;;;;7.15;4.82;;;22.20;99.90;;;;;;5067920;28;20229;-73
2021/07/19 12:19:00;;;;;;;8.82;4.50;;;22.10;99.90;;;;;;5067970;28;20221;-73
2021/07/19 12:21:30;;;;;;;8.75;4.88;;;22.50;99.90;;;;;;5066898;28;20663;-74
2021/07/19 12:24:00;;;;;;;8.00;4.80;;;22.40;99.90;;;;;;5067528;28;20237;-73
2021/07/19 12:26:39;;;;;;;8.75;4.80;;;22.10;99.90;;;;;;5067259;28;20213;-74
2021/07/19 12:29:09;;;;;;;6.72;4.85;;;22.10;99.90;;;;;;5067553;28;20676;-74
2021/07/19 12:31:38;;;;;;;9.50;5.13;;;21.80;99.90;;;;;;5067900;28;20510;-73
2021/07/19 12:34:07;;;;;;;9.75;4.28;;;21.60;99.90;;;;;;5067052;28;20205;-73
2021/07/19 12:36:34;;;;;;;7.78;4.75;;;21.70;99.90;;;;;;5065741;28;20241;-73
2021/07/19 12:39:05;;;;;;;11.18;5.00;;;22.00;99.90;;;;;;5066672;28;20209;-73
2021/07/19 12:41:32;;;;;;;10.35;4.57;;;22.40;99.90;;;;;;5067448;28;20741;-74
2021/07/19 12:44:01;;;;;;;8.65;5.00;;;22.40;99.90;;;;;;5067140;28;20272;-73
2021/07/19 12:46:29;;;;;;;7.15;4.43;;;22.20;99.90;;;;;;5046998;28;20232;-73
2021/07/19 12:48:56;;;;;;;6.68;4.65;;;22.30;99.90;;;;;;5047834;28;20575;-74
2021/07/19 12:51:25;;;;;;;7.28;4.65;;;21.90;99.90;;;;;;5068222;28;20214;-73